Galesburg, Iowa
Current Conditions -  °F | °C
As of 12:55 AM on Monday 24 Nov 2014 (Local Time) from KTNU Reporting Station
Overcast Overcast  
Wind Chill: -5°   Ceiling: 1900
Heat Index:   Visibility: 10mi
Dew Point:   Wind: 18mph
Humidity: 93%   Direction: 310°NW
Pressure: 29.33"   Gusts: NA
Location:  41.587°N, 93.0159°W
Report Text: KTNU 240655Z AUTO 31016KT 10SM FEW013 BKN019 OVC047 01/M00 A2933 RMK AO2 P0001
Loading
Personal Weather Stations






























Interactive Weather Map New forecast layout! Learn more

10-Day Weather Forecast

Advertisements
Track Severe Weather on mobile